Terminal Aerodrome Forecast
Issued by NWS

Home | Current Version | Previous Version | Text Only | Print | Product List | Glossary On
Versions: 1 2 3 4 5 6 7 8 9 10 11 12
545
FTUS42 TJSJ 252321
TAFJSJ
TAF
TJSJ 252321Z 2600/2624 15007KT P6SM FEW030 SCT070
     FM260200 13003KT P6SM SCT030 BKN050
     FM261500 08012KT P6SM SCT040=

USA.gov is the U.S. government's official web portal to all federal, state and local government web resources and services.